Marcel — ONDP — position and weather

sailwx.info

Track history (hours):
 
Tides and Currents Weather Stations Pressure Air Temp Water Temp Dewpoint Dewpoint Depression Visibility Wind Speed Wind Dir Waves Ship Positions

Marcel

Last reported at 2016-Feb-07 13:21 UTC. Time now 2016-Feb-12 01:21 UTC.
Position N 47°06' W 003°27'.

Length 88 m; draft 5.5 m.

Type: Cargo ship. MMSI: 205439000.

Date/timePositionNaut miles runAvg speedWind from/ knotsBaromVisibWave heightAir tempDewpointWater temp
2016-Feb-07 13:21N 47°06' W 003°27'6 7.8
2016-Feb-07 12:33N 47°10' W 003°34'61 7.7
2016-Feb-07 04:33N 47°48' W 004°45'8 8.2
2016-Feb-07 03:33N 47°54' W 004°54'17 4.4
2016-Feb-06 23:33N 48°07' W 005°12'4 4.2
2016-Feb-06 22:33N 48°06' W 005°06'4 4.1
2016-Feb-06 21:34N 48°06' W 004°60'5 5.1
2016-Feb-06 20:34N 48°06' W 004°52'6 6.0
2016-Feb-06 19:34N 48°07' W 004°43'7 6.5
2016-Feb-06 18:33N 48°07' W 004°33'7 7.4
2016-Feb-06 17:34N 48°07' W 004°22'2 1.5
2016-Feb-06 16:31N 48°07' W 004°20'0 0.0
2016-Feb-06 15:31N 48°07' W 004°20'0 0.0
2016-Feb-06 14:32N 48°07' W 004°20'0 0.0
2016-Feb-06 13:27N 48°07' W 004°20'0 0.0
2016-Feb-06 12:33N 48°07' W 004°20'0 0.0
2016-Feb-06 11:32N 48°07' W 004°20'0 0.0
2016-Feb-06 10:22N 48°07' W 004°20'0 0.0
2016-Feb-06 09:25N 48°07' W 004°20'0 0.0
2016-Feb-06 07:11N 48°07' W 004°20'0 0.0
2016-Feb-06 05:20N 48°07' W 004°20'0 0.0
2016-Feb-06 02:33N 48°07' W 004°20'0 0.0
2016-Feb-06 01:33N 48°07' W 004°20'0 0.0
2016-Feb-06 00:32N 48°07' W 004°20'0 0.0
2016-Feb-05 23:32N 48°07' W 004°20'2 1.7
2016-Feb-05 22:33N 48°07' W 004°22'8 8.0
2016-Feb-05 21:33N 48°07' W 004°34'8 8.6
2016-Feb-05 20:33N 48°08' W 004°47'16 7.8
2016-Feb-05 18:33N 48°10' W 005°10'15 7.5
2016-Feb-05 16:33N 48°13' W 005°33'140 5.0
2016-Feb-04 12:20N 50°22' W 004°08'0 0.2
2016-Feb-04 10:24N 50°22' W 004°08'0 0.0
2016-Feb-04 08:31N 50°22' W 004°08'0 0.0
2016-Feb-04 07:30N 50°22' W 004°08'0 0.0
2016-Feb-04 06:18N 50°22' W 004°08'0 0.0
2016-Feb-04 05:19N 50°22' W 004°08'0 0.0
2016-Feb-04 03:24N 50°22' W 004°08'0 0.0
2016-Feb-04 02:29N 50°22' W 004°08'0 0.0
2016-Feb-04 01:28N 50°22' W 004°08'0 0.0
2016-Feb-04 00:23N 50°22' W 004°08'0 0.0
2016-Feb-03 23:22N 50°22' W 004°08'0 0.0
2016-Feb-03 22:28N 50°22' W 004°08'0 0.0
2016-Feb-03 20:28N 50°22' W 004°08'0 0.0
2016-Feb-03 09:19N 50°22' W 004°08'0 0.0
2016-Feb-03 07:30N 50°22' W 004°08'0 0.0
2016-Feb-03 06:30N 50°22' W 004°08'0 0.0
2016-Feb-03 05:30N 50°22' W 004°08'0 0.0
2016-Feb-03 04:29N 50°22' W 004°08'160 5.9
2016-Feb-02 01:25N 50°33' E 000°03'4 4.1
2016-Feb-02 00:32N 50°34' E 000°09'5 4.5
2016-Feb-01 23:20N 50°35' E 000°17'3 4.4
2016-Feb-01 22:32N 50°36' E 000°23'13 4.4
2016-Feb-01 19:31N 50°41' E 000°42'4 4.3
2016-Feb-01 18:33N 50°43' E 000°47'4 3.9
2016-Feb-01 17:31N 50°46' E 000°52'14 3.4
2016-Feb-01 13:31N 50°55' E 001°08'5 4.7
2016-Feb-01 12:33N 50°57' E 001°14'5 5.4
2016-Feb-01 11:33N 51°01' E 001°20'6 5.9
2016-Feb-01 10:34N 51°05' E 001°28'5 5.1
2016-Feb-01 09:34N 51°08' E 001°34'5 5.3
2016-Feb-01 08:34N 51°11' E 001°40'6 5.8
2016-Feb-01 07:33N 51°15' E 001°47'6 5.9
2016-Feb-01 06:33N 51°20' E 001°52'6 5.8
2016-Feb-01 05:33N 51°25' E 001°58'6 6.1
2016-Feb-01 04:33N 51°30' E 002°04'7 6.7
2016-Feb-01 03:31N 51°35' E 002°11'8 7.8
2016-Feb-01 02:31N 51°40' E 002°20'54 6.8
2016-Jan-31 18:32N 52°03' E 003°40'7 6.9
2016-Jan-31 17:33N 52°03' E 003°51'7 6.8
2016-Jan-31 16:33N 52°00' E 004°01'1111.0
2016-Jan-31 15:33N 51°54' E 004°16'8 7.0
2016-Jan-31 14:28N 51°54' E 004°28'0 0.0
2016-Jan-31 13:32N 51°54' E 004°28'0 0.0
2016-Jan-31 12:30N 51°54' E 004°28'0 0.0
2016-Jan-31 11:26N 51°54' E 004°28'0 0.0
2016-Jan-31 10:28N 51°54' E 004°28'0 0.0
2016-Jan-31 09:26N 51°54' E 004°28'0 0.0
2016-Jan-31 08:30N 51°54' E 004°28'0 0.0
2016-Jan-31 07:27N 51°54' E 004°28'0 0.0
2016-Jan-31 06:29N 51°54' E 004°28'0 0.0
2016-Jan-31 05:26N 51°54' E 004°28'0 0.0
2016-Jan-31 04:31N 51°54' E 004°28'0 0.0
2016-Jan-31 03:33N 51°54' E 004°28'0 0.0
2016-Jan-31 02:29N 51°54' E 004°28'0 0.0
2016-Jan-31 01:26N 51°54' E 004°28'0 0.0
2016-Jan-31 00:28N 51°54' E 004°28'0 0.0
2016-Jan-30 23:33N 51°54' E 004°28'0 0.0
2016-Jan-30 22:28N 51°54' E 004°28'0 0.0
2016-Jan-30 21:33N 51°54' E 004°28'0 0.0
2016-Jan-30 20:30N 51°54' E 004°28'0 0.0
2016-Jan-30 19:26N 51°54' E 004°28'0 0.0
2016-Jan-30 18:30N 51°54' E 004°28'0 0.0
2016-Jan-30 17:32N 51°54' E 004°28'0 0.0
2016-Jan-30 16:22N 51°54' E 004°28'0 0.0
2016-Jan-30 15:32N 51°54' E 004°28'0 0.0
2016-Jan-30 14:31N 51°54' E 004°28'0 0.0
2016-Jan-30 13:33N 51°54' E 004°28'0 0.0
2016-Jan-30 12:30N 51°54' E 004°28'0 0.0
2016-Jan-30 11:26N 51°54' E 004°28'0 0.0
2016-Jan-30 10:30N 51°54' E 004°28'0 0.0
2016-Jan-30 09:33N 51°54' E 004°28'0 0.0
2016-Jan-30 08:31N 51°54' E 004°28'0 0.0
2016-Jan-30 07:33N 51°54' E 004°28'0 0.0
2016-Jan-30 06:33N 51°54' E 004°28'0 0.0
2016-Jan-30 05:27N 51°54' E 004°28'0 0.0
2016-Jan-30 04:28N 51°54' E 004°28'0 0.0
2016-Jan-30 03:32N 51°54' E 004°28'0 0.0
2016-Jan-30 02:30N 51°54' E 004°28'0 0.0
2016-Jan-30 01:26N 51°54' E 004°28'0 0.0
2016-Jan-30 00:31N 51°54' E 004°28'0 0.0
2016-Jan-29 23:32N 51°54' E 004°28'0 0.0
2016-Jan-29 22:28N 51°54' E 004°28'0 0.0
2016-Jan-29 21:33N 51°54' E 004°28'0 0.0
2016-Jan-29 20:30N 51°54' E 004°28'0 0.0
2016-Jan-29 19:27N 51°54' E 004°28'0 0.0
2016-Jan-29 18:31N 51°54' E 004°28'0 0.0
2016-Jan-29 17:32N 51°54' E 004°28'0 0.0
2016-Jan-29 16:28N 51°54' E 004°28'0 0.0
2016-Jan-29 15:32N 51°54' E 004°28'0 0.0
2016-Jan-29 14:30N 51°54' E 004°28'0 0.0
2016-Jan-29 13:33N 51°54' E 004°28'0 0.0
2016-Jan-29 12:31N 51°54' E 004°28'0 0.0
2016-Jan-29 11:27N 51°54' E 004°28'0 0.0
2016-Jan-29 10:28N 51°54' E 004°28'0 0.0
2016-Jan-29 09:19N 51°54' E 004°28'0 0.0
2016-Jan-29 08:31N 51°54' E 004°28'0 0.0
2016-Jan-29 07:33N 51°54' E 004°28'0 0.0
2016-Jan-29 06:31N 51°54' E 004°28'0 0.0
2016-Jan-29 05:26N 51°54' E 004°28'0 0.0
2016-Jan-29 04:30N 51°54' E 004°28'0 0.0
2016-Jan-29 03:27N 51°54' E 004°28'0 0.0
2016-Jan-29 02:30N 51°54' E 004°28'0 0.0
2016-Jan-29 01:27N 51°54' E 004°28'0 0.0
2016-Jan-29 00:28N 51°54' E 004°28'0 0.0
2016-Jan-28 23:32N 51°54' E 004°28'0 0.0
2016-Jan-28 22:33N 51°54' E 004°28'0 0.0
2016-Jan-28 21:27N 51°54' E 004°28'3 3.3
2016-Jan-28 20:33N 51°54' E 004°24'5 4.6
2016-Jan-28 19:33N 51°54' E 004°16'5 4.8
2016-Jan-28 18:33N 51°57' E 004°10'5 5.4
2016-Jan-28 17:33N 51°59' E 004°02'5 4.8
2016-Jan-28 16:33N 52°01' E 003°55'4 4.4
2016-Jan-28 15:33N 52°04' E 003°49'4 3.7
2016-Jan-28 14:33N 52°07' E 003°47'  
Track history (hours):
 
Tides and Currents Weather Stations Pressure Air Temp Water Temp Dewpoint Dewpoint Depression Visibility Wind Speed Wind Dir Waves Ship Positions

Marcel

Last reported at 2016-Feb-07 13:21 UTC. Time now 2016-Feb-12 01:21 UTC.
Position N 47°06' W 003°27'.

Length 88 m; draft 5.5 m.

Type: Cargo ship. MMSI: 205439000.

Date/timePositionNaut miles runAvg speedWind from/ knotsBaromVisibWave heightAir tempDewpointWater temp
2016-Feb-07 13:21N 47°06' W 003°27'6 7.8
2016-Feb-07 12:33N 47°10' W 003°34'61 7.7
2016-Feb-07 04:33N 47°48' W 004°45'8 8.2
2016-Feb-07 03:33N 47°54' W 004°54'17 4.4
2016-Feb-06 23:33N 48°07' W 005°12'4 4.2
2016-Feb-06 22:33N 48°06' W 005°06'4 4.1
2016-Feb-06 21:34N 48°06' W 004°60'5 5.1
2016-Feb-06 20:34N 48°06' W 004°52'6 6.0
2016-Feb-06 19:34N 48°07' W 004°43'7 6.5
2016-Feb-06 18:33N 48°07' W 004°33'7 7.4
2016-Feb-06 17:34N 48°07' W 004°22'2 1.5
2016-Feb-06 16:31N 48°07' W 004°20'0 0.0
2016-Feb-06 15:31N 48°07' W 004°20'0 0.0
2016-Feb-06 14:32N 48°07' W 004°20'0 0.0
2016-Feb-06 13:27N 48°07' W 004°20'0 0.0
2016-Feb-06 12:33N 48°07' W 004°20'0 0.0
2016-Feb-06 11:32N 48°07' W 004°20'0 0.0
2016-Feb-06 10:22N 48°07' W 004°20'0 0.0
2016-Feb-06 09:25N 48°07' W 004°20'0 0.0
2016-Feb-06 07:11N 48°07' W 004°20'0 0.0
2016-Feb-06 05:20N 48°07' W 004°20'0 0.0
2016-Feb-06 02:33N 48°07' W 004°20'0 0.0
2016-Feb-06 01:33N 48°07' W 004°20'0 0.0
2016-Feb-06 00:32N 48°07' W 004°20'0 0.0
2016-Feb-05 23:32N 48°07' W 004°20'2 1.7
2016-Feb-05 22:33N 48°07' W 004°22'8 8.0
2016-Feb-05 21:33N 48°07' W 004°34'8 8.6
2016-Feb-05 20:33N 48°08' W 004°47'16 7.8
2016-Feb-05 18:33N 48°10' W 005°10'15 7.5
2016-Feb-05 16:33N 48°13' W 005°33'140 5.0
2016-Feb-04 12:20N 50°22' W 004°08'0 0.2
2016-Feb-04 10:24N 50°22' W 004°08'0 0.0
2016-Feb-04 08:31N 50°22' W 004°08'0 0.0
2016-Feb-04 07:30N 50°22' W 004°08'0 0.0
2016-Feb-04 06:18N 50°22' W 004°08'0 0.0
2016-Feb-04 05:19N 50°22' W 004°08'0 0.0
2016-Feb-04 03:24N 50°22' W 004°08'0 0.0
2016-Feb-04 02:29N 50°22' W 004°08'0 0.0
2016-Feb-04 01:28N 50°22' W 004°08'0 0.0
2016-Feb-04 00:23N 50°22' W 004°08'0 0.0
2016-Feb-03 23:22N 50°22' W 004°08'0 0.0
2016-Feb-03 22:28N 50°22' W 004°08'0 0.0
2016-Feb-03 20:28N 50°22' W 004°08'0 0.0
2016-Feb-03 09:19N 50°22' W 004°08'0 0.0
2016-Feb-03 07:30N 50°22' W 004°08'0 0.0
2016-Feb-03 06:30N 50°22' W 004°08'0 0.0
2016-Feb-03 05:30N 50°22' W 004°08'0 0.0
2016-Feb-03 04:29N 50°22' W 004°08'160 5.9
2016-Feb-02 01:25N 50°33' E 000°03'4 4.1
2016-Feb-02 00:32N 50°34' E 000°09'5 4.5
2016-Feb-01 23:20N 50°35' E 000°17'3 4.4
2016-Feb-01 22:32N 50°36' E 000°23'13 4.4
2016-Feb-01 19:31N 50°41' E 000°42'4 4.3
2016-Feb-01 18:33N 50°43' E 000°47'4 3.9
2016-Feb-01 17:31N 50°46' E 000°52'14 3.4
2016-Feb-01 13:31N 50°55' E 001°08'5 4.7
2016-Feb-01 12:33N 50°57' E 001°14'5 5.4
2016-Feb-01 11:33N 51°01' E 001°20'6 5.9
2016-Feb-01 10:34N 51°05' E 001°28'5 5.1
2016-Feb-01 09:34N 51°08' E 001°34'5 5.3
2016-Feb-01 08:34N 51°11' E 001°40'6 5.8
2016-Feb-01 07:33N 51°15' E 001°47'6 5.9
2016-Feb-01 06:33N 51°20' E 001°52'6 5.8
2016-Feb-01 05:33N 51°25' E 001°58'6 6.1
2016-Feb-01 04:33N 51°30' E 002°04'7 6.7
2016-Feb-01 03:31N 51°35' E 002°11'8 7.8
2016-Feb-01 02:31N 51°40' E 002°20'54 6.8
2016-Jan-31 18:32N 52°03' E 003°40'7 6.9
2016-Jan-31 17:33N 52°03' E 003°51'7 6.8
2016-Jan-31 16:33N 52°00' E 004°01'1111.0
2016-Jan-31 15:33N 51°54' E 004°16'8 7.0
2016-Jan-31 14:28N 51°54' E 004°28'0 0.0
2016-Jan-31 13:32N 51°54' E 004°28'0 0.0
2016-Jan-31 12:30N 51°54' E 004°28'0 0.0
2016-Jan-31 11:26N 51°54' E 004°28'0 0.0
2016-Jan-31 10:28N 51°54' E 004°28'0 0.0
2016-Jan-31 09:26N 51°54' E 004°28'0 0.0
2016-Jan-31 08:30N 51°54' E 004°28'0 0.0
2016-Jan-31 07:27N 51°54' E 004°28'0 0.0
2016-Jan-31 06:29N 51°54' E 004°28'0 0.0
2016-Jan-31 05:26N 51°54' E 004°28'0 0.0
2016-Jan-31 04:31N 51°54' E 004°28'0 0.0
2016-Jan-31 03:33N 51°54' E 004°28'0 0.0
2016-Jan-31 02:29N 51°54' E 004°28'0 0.0
2016-Jan-31 01:26N 51°54' E 004°28'0 0.0
2016-Jan-31 00:28N 51°54' E 004°28'0 0.0
2016-Jan-30 23:33N 51°54' E 004°28'0 0.0
2016-Jan-30 22:28N 51°54' E 004°28'0 0.0
2016-Jan-30 21:33N 51°54' E 004°28'0 0.0
2016-Jan-30 20:30N 51°54' E 004°28'0 0.0
2016-Jan-30 19:26N 51°54' E 004°28'0 0.0
2016-Jan-30 18:30N 51°54' E 004°28'0 0.0
2016-Jan-30 17:32N 51°54' E 004°28'0 0.0
2016-Jan-30 16:22N 51°54' E 004°28'0 0.0
2016-Jan-30 15:32N 51°54' E 004°28'0 0.0
2016-Jan-30 14:31N 51°54' E 004°28'0 0.0
2016-Jan-30 13:33N 51°54' E 004°28'0 0.0
2016-Jan-30 12:30N 51°54' E 004°28'0 0.0
2016-Jan-30 11:26N 51°54' E 004°28'0 0.0
2016-Jan-30 10:30N 51°54' E 004°28'0 0.0
2016-Jan-30 09:33N 51°54' E 004°28'0 0.0
2016-Jan-30 08:31N 51°54' E 004°28'0 0.0
2016-Jan-30 07:33N 51°54' E 004°28'0 0.0
2016-Jan-30 06:33N 51°54' E 004°28'0 0.0
2016-Jan-30 05:27N 51°54' E 004°28'0 0.0
2016-Jan-30 04:28N 51°54' E 004°28'0 0.0
2016-Jan-30 03:32N 51°54' E 004°28'0 0.0
2016-Jan-30 02:30N 51°54' E 004°28'0 0.0
2016-Jan-30 01:26N 51°54' E 004°28'0 0.0
2016-Jan-30 00:31N 51°54' E 004°28'0 0.0
2016-Jan-29 23:32N 51°54' E 004°28'0 0.0
2016-Jan-29 22:28N 51°54' E 004°28'0 0.0
2016-Jan-29 21:33N 51°54' E 004°28'0 0.0
2016-Jan-29 20:30N 51°54' E 004°28'0 0.0
2016-Jan-29 19:27N 51°54' E 004°28'0 0.0
2016-Jan-29 18:31N 51°54' E 004°28'0 0.0
2016-Jan-29 17:32N 51°54' E 004°28'0 0.0
2016-Jan-29 16:28N 51°54' E 004°28'0 0.0
2016-Jan-29 15:32N 51°54' E 004°28'0 0.0
2016-Jan-29 14:30N 51°54' E 004°28'0 0.0
2016-Jan-29 13:33N 51°54' E 004°28'0 0.0
2016-Jan-29 12:31N 51°54' E 004°28'0 0.0
2016-Jan-29 11:27N 51°54' E 004°28'0 0.0
2016-Jan-29 10:28N 51°54' E 004°28'0 0.0
2016-Jan-29 09:19N 51°54' E 004°28'0 0.0
2016-Jan-29 08:31N 51°54' E 004°28'0 0.0
2016-Jan-29 07:33N 51°54' E 004°28'0 0.0
2016-Jan-29 06:31N 51°54' E 004°28'0 0.0
2016-Jan-29 05:26N 51°54' E 004°28'0 0.0
2016-Jan-29 04:30N 51°54' E 004°28'0 0.0
2016-Jan-29 03:27N 51°54' E 004°28'0 0.0
2016-Jan-29 02:30N 51°54' E 004°28'0 0.0
2016-Jan-29 01:27N 51°54' E 004°28'0 0.0
2016-Jan-29 00:28N 51°54' E 004°28'0 0.0
2016-Jan-28 23:32N 51°54' E 004°28'0 0.0
2016-Jan-28 22:33N 51°54' E 004°28'0 0.0
2016-Jan-28 21:27N 51°54' E 004°28'3 3.3
2016-Jan-28 20:33N 51°54' E 004°24'5 4.6
2016-Jan-28 19:33N 51°54' E 004°16'5 4.8
2016-Jan-28 18:33N 51°57' E 004°10'5 5.4
2016-Jan-28 17:33N 51°59' E 004°02'5 4.8
2016-Jan-28 16:33N 52°01' E 003°55'4 4.4
2016-Jan-28 15:33N 52°04' E 003°49'4 3.7
2016-Jan-28 14:33N 52°07' E 003°47'  

Dump ship's entire track history